createdAt,value
2022-08-09T00:00:04.940Z,52.46
2022-08-09T00:02:43.004Z,52.40
2022-08-09T00:06:15.537Z,52.65
2022-08-09T00:08:04.229Z,52.93
2022-08-09T00:10:37.021Z,53.17
2022-08-09T00:13:06.699Z,53.60
2022-08-09T00:15:59.362Z,53.48
2022-08-09T00:18:31.326Z,53.69
2022-08-09T00:21:04.876Z,53.78
2022-08-09T00:23:56.330Z,53.71
2022-08-09T00:26:18.622Z,53.59
2022-08-09T00:28:52.659Z,53.53
2022-08-09T00:31:57.524Z,53.76
2022-08-09T00:34:08.357Z,53.37
2022-08-09T00:36:37.924Z,53.60
2022-08-09T00:39:06.943Z,53.40
2022-08-09T00:44:18.699Z,53.09
2022-08-09T00:44:31.046Z,52.85
2022-08-09T00:47:05.243Z,52.73
2022-08-09T00:49:32.741Z,52.49
2022-08-09T00:52:05.190Z,52.89
2022-08-09T00:54:35.972Z,52.92
2022-08-09T00:57:10.480Z,53.18
2022-08-09T00:59:41.168Z,52.95
2022-08-09T01:02:20.154Z,53.26
2022-08-09T01:04:56.925Z,53.26
2022-08-09T01:07:38.040Z,53.41
2022-08-09T01:10:29.064Z,53.71
2022-08-09T01:12:59.753Z,53.86
2022-08-09T01:15:30.839Z,53.76
2022-08-09T01:18:02.635Z,53.59
2022-08-09T01:20:41.101Z,53.35
2022-08-09T01:24:02.710Z,53.87
2022-08-09T01:26:25.226Z,54.04
2022-08-09T01:28:56.369Z,54.66
2022-08-09T01:32:29.899Z,54.57
2022-08-09T01:34:18.583Z,55.25
2022-08-09T01:36:48.947Z,55.03
2022-08-09T01:39:17.594Z,55.25
2022-08-09T01:41:53.668Z,55.38
2022-08-09T01:44:25.348Z,55.43
2022-08-09T01:46:53.114Z,55.46
2022-08-09T01:49:24.250Z,55.17
2022-08-09T01:51:54.831Z,55.10
2022-08-09T01:54:24.948Z,55.54
2022-08-09T01:56:52.627Z,55.45
2022-08-09T01:59:21.202Z,55.29
2022-08-09T02:01:59.539Z,55.65
2022-08-09T02:04:29.796Z,55.37
2022-08-09T02:07:18.156Z,55.16
2022-08-09T02:10:05.581Z,55.41
2022-08-09T02:12:35.178Z,55.39
2022-08-09T02:15:06.379Z,55.28
2022-08-09T02:18:00.725Z,55.13
2022-08-09T02:20:33.949Z,55.00
2022-08-09T02:23:07.209Z,55.18
2022-08-09T02:25:42.182Z,54.89
2022-08-09T02:28:20.493Z,55.15
2022-08-09T02:30:58.453Z,54.75
2022-08-09T02:33:58.202Z,54.75
2022-08-09T02:36:21.123Z,54.55
2022-08-09T02:38:50.951Z,54.47
2022-08-09T02:41:24.387Z,54.47
2022-08-09T02:43:54.693Z,54.30
2022-08-09T02:46:24.353Z,54.09
2022-08-09T02:48:54.892Z,54.02
2022-08-09T02:51:26.396Z,54.29
2022-08-09T02:54:01.252Z,54.26
2022-08-09T02:56:30.464Z,54.60
2022-08-09T02:58:59.453Z,54.82
2022-08-09T03:01:42.594Z,54.53
2022-08-09T03:04:19.428Z,54.33
2022-08-09T03:06:48.672Z,54.86
2022-08-09T03:09:17.689Z,54.72
2022-08-09T03:12:09.896Z,54.79
2022-08-09T03:14:33.527Z,54.54
2022-08-09T03:17:02.094Z,54.81
2022-08-09T03:19:59.035Z,54.55
2022-08-09T03:22:30.440Z,54.81
2022-08-09T03:25:21.537Z,54.88
2022-08-09T03:27:48.920Z,54.98
2022-08-09T03:30:29.176Z,54.71
2022-08-09T03:32:59.541Z,54.74
2022-08-09T03:35:44.180Z,54.97
2022-08-09T03:38:16.088Z,54.78
2022-08-09T03:40:58.024Z,54.66
2022-08-09T03:43:25.121Z,54.29
2022-08-09T03:46:04.789Z,54.59
2022-08-09T03:48:51.330Z,54.59
2022-08-09T03:51:54.998Z,54.88
2022-08-09T03:54:11.112Z,54.66
2022-08-09T03:56:40.941Z,54.64
2022-08-09T03:59:17.238Z,54.82
2022-08-09T04:01:49.203Z,55.24
2022-08-09T04:04:17.047Z,54.93
2022-08-09T04:06:49.069Z,54.95
2022-08-09T04:09:48.331Z,54.96
2022-08-09T04:12:30.160Z,55.04
2022-08-09T04:15:01.999Z,55.02
2022-08-09T04:17:38.224Z,54.80
2022-08-09T04:20:07.528Z,54.88
2022-08-09T04:22:35.719Z,54.76
2022-08-09T04:25:08.930Z,54.64
2022-08-09T04:27:41.578Z,54.56
2022-08-09T04:30:11.547Z,54.65
2022-08-09T04:32:40.078Z,54.62
2022-08-09T04:35:13.527Z,54.61
2022-08-09T04:37:45.993Z,54.57
2022-08-09T04:40:28.884Z,54.48
2022-08-09T04:43:03.686Z,54.55
2022-08-09T04:45:31.102Z,54.33
2022-08-09T04:48:08.019Z,54.83
2022-08-09T04:50:37.711Z,54.77
2022-08-09T04:53:11.718Z,54.79
2022-08-09T04:55:57.412Z,54.99
2022-08-09T04:58:25.611Z,55.22
2022-08-09T05:00:54.377Z,55.15
2022-08-09T05:03:40.411Z,54.82
2022-08-09T05:06:09.092Z,55.07
2022-08-09T05:08:37.489Z,55.18
2022-08-09T05:11:06.854Z,55.05
2022-08-09T05:13:38.702Z,55.06
2022-08-09T05:16:07.030Z,55.10
2022-08-09T05:18:38.084Z,55.04
2022-08-09T05:21:10.077Z,55.09
2022-08-09T05:24:00.307Z,54.43
2022-08-09T05:26:36.629Z,54.68
2022-08-09T05:29:17.694Z,54.56
2022-08-09T05:31:56.130Z,54.35
2022-08-09T05:34:29.982Z,54.39
2022-08-09T05:37:01.831Z,54.24
2022-08-09T05:39:36.440Z,54.10
2022-08-09T05:42:10.105Z,54.43
2022-08-09T05:44:44.819Z,54.14
2022-08-09T05:47:14.351Z,54.16
2022-08-09T05:50:24.065Z,54.17
2022-08-09T05:52:27.918Z,53.95
2022-08-09T05:55:03.142Z,53.88
2022-08-09T05:57:55.671Z,53.88
2022-08-09T06:00:21.398Z,53.76
2022-08-09T06:02:48.935Z,53.76
2022-08-09T06:05:50.028Z,53.76
2022-08-09T06:08:09.098Z,53.57
2022-08-09T06:10:39.418Z,53.67
2022-08-09T06:13:12.012Z,53.87
2022-08-09T06:15:40.091Z,53.65
2022-08-09T06:18:08.739Z,53.58
2022-08-09T06:20:38.061Z,53.44
2022-08-09T06:23:04.805Z,53.31
2022-08-09T06:25:31.419Z,53.06
2022-08-09T06:28:02.672Z,52.90
2022-08-09T06:30:29.477Z,52.97
2022-08-09T06:33:00.709Z,52.97
2022-08-09T06:35:57.826Z,52.77
2022-08-09T06:38:32.294Z,52.72
2022-08-09T06:41:04.755Z,52.70
2022-08-09T06:43:46.658Z,52.65
2022-08-09T06:46:39.025Z,52.72
2022-08-09T06:49:00.463Z,53.04
2022-08-09T06:51:27.995Z,53.32
2022-08-09T06:53:55.104Z,52.69
2022-08-09T06:56:30.608Z,52.61
2022-08-09T07:00:54.408Z,52.36
2022-08-09T07:01:54.153Z,52.28
2022-08-09T07:04:24.600Z,52.15
2022-08-09T07:06:59.935Z,52.09
2022-08-09T07:09:55.597Z,52.11
2022-08-09T07:12:18.231Z,52.13
2022-08-09T07:14:50.706Z,52.10
2022-08-09T07:17:18.649Z,52.26
2022-08-09T07:19:48.072Z,52.23
2022-08-09T07:22:17.465Z,52.52
2022-08-09T07:24:49.351Z,51.90
2022-08-09T07:27:33.799Z,51.76
2022-08-09T07:30:03.852Z,51.44
2022-08-09T07:32:34.220Z,51.14
2022-08-09T07:35:10.412Z,50.82
2022-08-09T07:37:42.859Z,50.74
2022-08-09T07:40:16.987Z,49.74
2022-08-09T07:42:54.525Z,49.02
2022-08-09T07:45:39.662Z,49.35
2022-08-09T07:48:25.620Z,48.32
2022-08-09T07:51:09.775Z,48.53
2022-08-09T07:54:04.474Z,47.55
2022-08-09T07:56:31.010Z,46.78
2022-08-09T07:58:59.594Z,46.94
2022-08-09T08:01:32.987Z,46.41
2022-08-09T08:04:02.291Z,46.38
2022-08-09T08:06:31.895Z,46.12
2022-08-09T08:09:04.399Z,46.00
2022-08-09T08:12:09.419Z,44.80
2022-08-09T08:14:18.643Z,43.79
2022-08-09T08:17:00.588Z,42.43
2022-08-09T08:19:34.995Z,43.09
2022-08-09T08:22:01.783Z,43.61
2022-08-09T08:24:35.287Z,43.78
2022-08-09T08:27:16.500Z,41.87
2022-08-09T08:29:48.857Z,42.33
2022-08-09T08:32:41.694Z,42.49
2022-08-09T08:35:06.781Z,42.45
2022-08-09T08:37:41.725Z,42.07
2022-08-09T08:40:20.238Z,41.12
2022-08-09T08:42:47.420Z,41.82
2022-08-09T08:45:17.425Z,42.27
2022-08-09T08:48:06.227Z,41.70
2022-08-09T08:50:37.403Z,41.20
2022-08-09T08:53:05.562Z,40.65
2022-08-09T08:55:38.547Z,40.04
2022-08-09T08:58:10.724Z,40.03
2022-08-09T09:00:37.853Z,36.83
2022-08-09T09:03:11.486Z,37.87
2022-08-09T09:05:58.211Z,38.42
2022-08-09T09:08:32.033Z,38.40
2022-08-09T09:11:06.257Z,37.71
2022-08-09T09:13:54.954Z,37.82
2022-08-09T09:16:30.757Z,38.25
2022-08-09T09:19:22.715Z,36.61
2022-08-09T09:21:58.151Z,36.29
2022-08-09T09:24:28.912Z,36.65
2022-08-09T09:26:57.507Z,36.09
2022-08-09T09:29:58.090Z,35.92
2022-08-09T09:32:32.286Z,34.73
2022-08-09T09:35:07.649Z,34.51
2022-08-09T09:37:37.204Z,34.68
2022-08-09T09:40:09.366Z,34.22
2022-08-09T09:42:36.286Z,32.59
2022-08-09T09:45:08.366Z,32.64
2022-08-09T09:47:47.790Z,33.70
2022-08-09T09:50:49.663Z,33.50
2022-08-09T09:53:20.313Z,32.96
2022-08-09T09:55:57.672Z,33.09
2022-08-09T09:58:44.852Z,32.49
2022-08-09T10:01:31.470Z,32.59
2022-08-09T10:04:09.553Z,32.48
2022-08-09T10:06:42.812Z,32.86
2022-08-09T10:09:22.182Z,33.06
2022-08-09T10:12:04.510Z,32.90
2022-08-09T10:14:43.984Z,32.88
2022-08-09T10:17:40.649Z,33.84
2022-08-09T10:20:15.228Z,32.64
2022-08-09T10:22:44.094Z,31.30
2022-08-09T10:25:14.253Z,31.02
2022-08-09T10:27:45.155Z,31.95
2022-08-09T10:34:04.294Z,30.93
2022-08-09T10:36:00.969Z,31.16
2022-08-09T10:38:33.760Z,31.27
2022-08-09T10:41:18.795Z,31.61
2022-08-09T10:43:52.613Z,30.25
2022-08-09T10:46:55.619Z,30.19
2022-08-09T10:49:51.035Z,28.99
2022-08-09T10:52:38.020Z,29.13
2022-08-09T10:55:24.184Z,30.42
2022-08-09T10:57:55.380Z,30.87
2022-08-09T11:00:35.172Z,30.54
2022-08-09T11:03:18.600Z,30.37
2022-08-09T11:06:26.475Z,30.61
2022-08-09T11:08:54.136Z,29.50
2022-08-09T11:11:23.476Z,30.44
2022-08-09T11:14:31.882Z,30.18
2022-08-09T11:16:58.959Z,30.25
2022-08-09T11:20:11.619Z,30.05
2022-08-09T11:23:00.043Z,29.76
2022-08-09T11:25:47.396Z,30.01
2022-08-09T11:28:55.916Z,30.71
2022-08-09T11:31:49.976Z,27.63
2022-08-09T11:34:27.614Z,28.82
2022-08-09T11:36:55.926Z,29.72
2022-08-09T11:39:24.234Z,29.41
2022-08-09T11:41:58.236Z,29.66
2022-08-09T11:44:46.497Z,28.22
2022-08-09T11:47:14.415Z,28.05
2022-08-09T11:50:54.408Z,28.05
2022-08-09T11:53:59.568Z,28.38
2022-08-09T11:56:41.395Z,28.36
2022-08-09T11:59:24.549Z,29.40
2022-08-09T12:02:34.315Z,27.83
2022-08-09T12:04:46.125Z,27.95
2022-08-09T12:07:14.271Z,28.37
2022-08-09T12:09:50.501Z,26.31
2022-08-09T12:12:20.083Z,26.80
2022-08-09T12:15:08.299Z,27.64
2022-08-09T12:17:43.549Z,28.46
2022-08-09T12:20:16.322Z,27.93
2022-08-09T12:22:47.401Z,28.47
2022-08-09T12:25:35.894Z,26.19
2022-08-09T12:28:59.751Z,26.70
2022-08-09T12:30:57.886Z,27.46
2022-08-09T12:33:51.414Z,27.53
2022-08-09T12:36:15.431Z,27.53
2022-08-09T12:38:55.268Z,25.42
2022-08-09T12:41:32.676Z,25.81
2022-08-09T12:44:07.826Z,26.15
2022-08-09T12:46:39.623Z,25.68
2022-08-09T12:49:09.196Z,26.18
2022-08-09T12:52:01.282Z,27.34
2022-08-09T12:54:22.642Z,28.39
2022-08-09T12:56:54.475Z,26.98
2022-08-09T12:59:23.627Z,27.05
2022-08-09T13:02:02.528Z,26.15
2022-08-09T13:04:36.214Z,26.13
2022-08-09T13:07:13.523Z,25.91
2022-08-09T13:09:52.775Z,26.74
2022-08-09T13:12:26.909Z,25.17
2022-08-09T13:15:04.515Z,25.09
2022-08-09T13:18:02.492Z,24.66
2022-08-09T13:20:37.642Z,26.21
2022-08-09T13:24:17.551Z,26.58
2022-08-09T13:26:04.266Z,27.89
2022-08-09T13:28:34.705Z,28.30
2022-08-09T13:32:13.912Z,28.25
2022-08-09T13:33:54.449Z,28.03
2022-08-09T13:36:24.502Z,28.35
2022-08-09T13:41:17.706Z,26.74
2022-08-09T13:42:02.044Z,26.69
2022-08-09T13:44:30.314Z,26.44
2022-08-09T13:47:29.092Z,27.01
2022-08-09T13:49:58.092Z,27.62
2022-08-09T13:52:30.533Z,27.83
2022-08-09T13:54:59.849Z,27.22
2022-08-09T13:57:36.248Z,28.16
2022-08-09T14:00:10.561Z,25.52
2022-08-09T14:02:42.831Z,25.17
2022-08-09T14:05:58.099Z,26.18
2022-08-09T14:08:17.622Z,25.54
2022-08-09T14:10:49.386Z,26.05
2022-08-09T14:14:16.060Z,24.42
2022-08-09T14:16:11.260Z,25.59
2022-08-09T14:18:38.756Z,26.54
2022-08-09T14:21:11.174Z,26.83
2022-08-09T14:23:55.455Z,27.10
2022-08-09T14:26:31.729Z,25.22
2022-08-09T14:29:02.074Z,26.32
2022-08-09T14:31:35.789Z,26.89
2022-08-09T14:34:17.674Z,26.94
2022-08-09T14:36:54.877Z,26.28
2022-08-09T14:39:40.281Z,27.01
2022-08-09T14:42:09.861Z,27.53
2022-08-09T14:44:48.715Z,26.17
2022-08-09T14:47:45.257Z,26.59
2022-08-09T14:50:16.147Z,27.41
2022-08-09T14:52:47.725Z,25.75
2022-08-09T14:55:21.093Z,25.07
2022-08-09T14:57:48.750Z,25.93
2022-08-09T15:00:16.237Z,26.99
2022-08-09T15:02:42.864Z,27.89
2022-08-09T15:05:16.280Z,26.85
2022-08-09T15:07:45.551Z,27.27
2022-08-09T15:10:25.043Z,26.45
2022-08-09T15:12:52.205Z,25.61
2022-08-09T15:15:19.019Z,24.82
2022-08-09T15:17:51.542Z,25.61
2022-08-09T15:21:53.451Z,25.74
2022-08-09T15:24:00.652Z,26.93
2022-08-09T15:25:57.420Z,26.39
2022-08-09T15:28:26.546Z,27.99
2022-08-09T15:31:03.281Z,26.99
2022-08-09T15:34:18.415Z,26.44
2022-08-09T15:36:29.115Z,27.90
2022-08-09T15:38:57.231Z,27.70
2022-08-09T15:41:32.194Z,27.67
2022-08-09T15:43:59.734Z,26.36
2022-08-09T15:46:32.914Z,27.80
2022-08-09T15:49:21.986Z,27.98
2022-08-09T15:52:04.675Z,26.57
2022-08-09T15:54:44.388Z,27.13
2022-08-09T15:57:14.964Z,27.01
2022-08-09T15:59:51.437Z,26.83
2022-08-09T16:02:19.290Z,26.22
2022-08-09T16:04:55.964Z,26.00
2022-08-09T16:07:22.697Z,26.61
2022-08-09T16:10:02.529Z,27.82
2022-08-09T16:12:33.419Z,27.72
2022-08-09T16:15:00.805Z,27.95
2022-08-09T16:17:29.142Z,27.19
2022-08-09T16:20:04.953Z,26.42
2022-08-09T16:22:42.274Z,27.32
2022-08-09T16:25:11.257Z,27.71
2022-08-09T16:27:40.825Z,28.19
2022-08-09T16:30:15.400Z,28.51
2022-08-09T16:33:11.838Z,28.60
2022-08-09T16:35:56.810Z,28.99
2022-08-09T16:38:26.812Z,27.77
2022-08-09T16:40:53.915Z,27.81
2022-08-09T16:43:26.670Z,27.72
2022-08-09T16:45:59.422Z,27.81
2022-08-09T16:48:40.064Z,28.38
2022-08-09T16:51:15.486Z,28.45
2022-08-09T16:56:34.082Z,28.71
2022-08-09T16:59:10.574Z,29.12
2022-08-09T17:01:37.643Z,29.27
2022-08-09T17:04:06.595Z,29.58
2022-08-09T17:07:04.715Z,29.22
2022-08-09T17:09:45.180Z,28.52
2022-08-09T17:12:09.584Z,28.27
2022-08-09T17:14:37.607Z,28.31
2022-08-09T17:17:26.114Z,28.55
2022-08-09T17:20:29.669Z,29.35
2022-08-09T17:22:45.019Z,29.61
2022-08-09T17:25:19.233Z,30.33
2022-08-09T17:27:49.499Z,30.99
2022-08-09T17:30:25.795Z,30.70
2022-08-09T17:32:54.535Z,30.58
2022-08-09T17:35:25.220Z,30.25
2022-08-09T17:38:12.578Z,30.35
2022-08-09T17:40:38.864Z,30.34
2022-08-09T17:43:32.819Z,30.47
2022-08-09T17:46:02.577Z,30.30
2022-08-09T17:48:31.814Z,30.01
2022-08-09T17:51:01.732Z,30.17
2022-08-09T17:53:42.936Z,30.21
2022-08-09T17:56:10.930Z,30.21
2022-08-09T17:58:37.617Z,30.57
2022-08-09T18:01:11.091Z,29.50
2022-08-09T18:03:49.302Z,30.11
2022-08-09T18:06:32.395Z,30.15
2022-08-09T18:09:01.861Z,30.62
2022-08-09T18:12:05.085Z,31.16
2022-08-09T18:14:19.558Z,30.97
2022-08-09T18:16:48.772Z,31.73
2022-08-09T18:20:55.000Z,31.86
2022-08-09T18:22:04.203Z,30.47
2022-08-09T18:24:31.510Z,30.63
2022-08-09T18:27:01.123Z,31.17
2022-08-09T18:30:41.256Z,31.66
2022-08-09T18:32:19.014Z,31.12
2022-08-09T18:34:46.016Z,30.66
2022-08-09T18:37:48.047Z,30.56
2022-08-09T18:40:01.919Z,31.42
2022-08-09T18:42:29.491Z,31.98
2022-08-09T18:44:56.965Z,33.13
2022-08-09T18:47:32.801Z,34.28
2022-08-09T18:50:06.196Z,34.09
2022-08-09T18:52:37.564Z,34.65
2022-08-09T18:55:13.622Z,34.68
2022-08-09T18:57:44.624Z,34.59
2022-08-09T19:00:20.096Z,34.23
2022-08-09T19:02:50.987Z,34.52
2022-08-09T19:05:28.736Z,34.67
2022-08-09T19:08:10.539Z,34.68
2022-08-09T19:10:40.841Z,34.62
2022-08-09T19:13:22.328Z,34.98
2022-08-09T19:15:51.450Z,34.99
2022-08-09T19:18:33.098Z,35.25
2022-08-09T19:21:09.384Z,35.40
2022-08-09T19:24:37.273Z,35.33
2022-08-09T19:26:31.272Z,35.90
2022-08-09T19:29:01.942Z,36.81
2022-08-09T19:31:30.232Z,36.29
2022-08-09T19:33:59.159Z,36.51
2022-08-09T19:36:30.906Z,36.77
2022-08-09T19:39:03.423Z,36.61
2022-08-09T19:41:33.421Z,36.68
2022-08-09T19:44:03.346Z,36.61
2022-08-09T19:46:35.083Z,36.60
2022-08-09T19:50:07.501Z,37.07
2022-08-09T19:51:56.025Z,37.65
2022-08-09T19:54:23.633Z,37.68
2022-08-09T19:56:52.265Z,38.16
2022-08-09T19:59:58.386Z,38.29
2022-08-09T20:03:24.050Z,38.71
2022-08-09T20:04:55.577Z,38.61
2022-08-09T20:07:22.799Z,38.59
2022-08-09T20:09:51.942Z,38.39
2022-08-09T20:12:29.993Z,38.33
2022-08-09T20:15:04.745Z,38.56
2022-08-09T20:17:54.265Z,38.70
2022-08-09T20:20:24.792Z,38.39
2022-08-09T20:22:56.170Z,38.50
2022-08-09T20:25:23.456Z,38.86
2022-08-09T20:27:51.065Z,39.06
2022-08-09T20:30:21.660Z,39.08
2022-08-09T20:32:52.294Z,39.29
2022-08-09T20:35:19.513Z,39.21
2022-08-09T20:38:18.661Z,39.72
2022-08-09T20:40:34.282Z,39.49
2022-08-09T20:43:18.553Z,40.32
2022-08-09T20:46:01.813Z,40.55
2022-08-09T20:48:36.991Z,40.92
2022-08-09T20:51:04.661Z,41.28
2022-08-09T20:53:37.707Z,41.37
2022-08-09T20:56:07.182Z,41.46
2022-08-09T20:58:35.931Z,41.40
2022-08-09T21:01:33.556Z,41.93
2022-08-09T21:05:49.336Z,41.60
2022-08-09T21:06:41.561Z,41.65
2022-08-09T21:09:13.463Z,41.62
2022-08-09T21:14:31.147Z,41.35
2022-08-09T21:16:58.141Z,41.75
2022-08-09T21:20:17.938Z,42.08
2022-08-09T21:22:23.096Z,42.23
2022-08-09T21:25:20.795Z,42.48
2022-08-09T21:27:51.647Z,42.29
2022-08-09T21:30:22.436Z,42.22
2022-08-09T21:32:49.771Z,42.42
2022-08-09T21:35:16.936Z,42.78
2022-08-09T21:37:58.880Z,42.95
2022-08-09T21:40:30.326Z,43.14
2022-08-09T21:42:58.277Z,43.30
2022-08-09T21:45:25.484Z,43.00
2022-08-09T21:47:52.589Z,43.19
2022-08-09T21:50:35.756Z,43.05
2022-08-09T21:53:06.120Z,43.29
2022-08-09T21:55:34.354Z,43.56
2022-08-09T21:58:02.505Z,43.31
2022-08-09T22:00:32.278Z,43.61
2022-08-09T22:03:01.911Z,43.71
2022-08-09T22:05:36.718Z,43.68
2022-08-09T22:08:06.814Z,43.62
2022-08-09T22:11:49.303Z,43.67
2022-08-09T22:13:34.100Z,43.83
2022-08-09T22:16:03.699Z,43.77
2022-08-09T22:18:32.621Z,43.59
2022-08-09T22:21:00.443Z,44.08
2022-08-09T22:23:35.220Z,44.12
2022-08-09T22:26:34.191Z,44.32
2022-08-09T22:29:06.996Z,44.31
2022-08-09T22:31:34.613Z,44.24
2022-08-09T22:34:01.606Z,44.34
2022-08-09T22:36:28.362Z,44.34
2022-08-09T22:39:04.543Z,44.46
2022-08-09T22:41:32.730Z,44.08
2022-08-09T22:44:04.199Z,43.93
2022-08-09T22:48:11.603Z,43.97
2022-08-09T22:49:19.264Z,44.39
2022-08-09T22:51:53.534Z,44.54
2022-08-09T22:54:26.076Z,44.54
2022-08-09T22:56:57.031Z,44.70
2022-08-09T22:59:56.072Z,44.86
2022-08-09T23:02:10.920Z,44.90
2022-08-09T23:04:42.385Z,45.02
2022-08-09T23:08:21.086Z,45.04
2022-08-09T23:10:14.217Z,44.69
2022-08-09T23:12:43.967Z,45.04
2022-08-09T23:15:11.106Z,45.01
2022-08-09T23:17:37.798Z,44.93
2022-08-09T23:20:07.866Z,44.62
2022-08-09T23:22:35.916Z,44.78
2022-08-09T23:25:03.008Z,44.66
2022-08-09T23:27:29.657Z,44.77
2022-08-09T23:29:57.633Z,44.52
2022-08-09T23:32:24.494Z,44.57
2022-08-09T23:34:51.216Z,45.03
2022-08-09T23:37:17.848Z,45.64
2022-08-09T23:39:48.365Z,45.73
2022-08-09T23:42:15.138Z,45.59
2022-08-09T23:44:41.885Z,46.18
2022-08-09T23:47:09.877Z,46.56
2022-08-09T23:49:36.554Z,46.97
2022-08-09T23:52:03.690Z,47.19
2022-08-09T23:54:30.314Z,47.53
2022-08-09T23:56:58.209Z,47.60
2022-08-09T23:59:25.748Z,47.68
